sensor_id;sensor_type;location;lat;lon;timestamp;P1;durP1;ratioP1;P2;durP2;ratioP2
69594;SDS011;56800;52.142;5.364;2023-07-20T00:02:22;7.13;;;2.50;;
69594;SDS011;56800;52.142;5.364;2023-07-20T00:04:50;3.08;;;2.50;;
69594;SDS011;56800;52.142;5.364;2023-07-20T00:07:16;4.75;;;2.15;;
69594;SDS011;56800;52.142;5.364;2023-07-20T00:09:43;4.15;;;1.90;;
69594;SDS011;56800;52.142;5.364;2023-07-20T00:12:10;2.75;;;1.85;;
69594;SDS011;56800;52.142;5.364;2023-07-20T00:14:36;2.90;;;1.53;;
69594;SDS011;56800;52.142;5.364;2023-07-20T00:17:03;4.10;;;2.00;;
69594;SDS011;56800;52.142;5.364;2023-07-20T00:19:30;3.40;;;1.60;;
69594;SDS011;56800;52.142;5.364;2023-07-20T00:21:58;2.58;;;1.75;;
69594;SDS011;56800;52.142;5.364;2023-07-20T00:24:25;2.97;;;1.70;;
69594;SDS011;56800;52.142;5.364;2023-07-20T00:26:52;4.30;;;1.93;;
69594;SDS011;56800;52.142;5.364;2023-07-20T00:29:19;2.70;;;1.33;;
69594;SDS011;56800;52.142;5.364;2023-07-20T00:31:46;4.63;;;1.65;;
69594;SDS011;56800;52.142;5.364;2023-07-20T00:34:14;2.95;;;1.85;;
69594;SDS011;56800;52.142;5.364;2023-07-20T00:36:40;3.17;;;1.70;;
69594;SDS011;56800;52.142;5.364;2023-07-20T00:39:07;3.00;;;2.07;;
69594;SDS011;56800;52.142;5.364;2023-07-20T00:41:34;3.10;;;1.80;;
69594;SDS011;56800;52.142;5.364;2023-07-20T00:44:01;5.20;;;1.70;;
69594;SDS011;56800;52.142;5.364;2023-07-20T00:46:28;2.50;;;1.60;;
69594;SDS011;56800;52.142;5.364;2023-07-20T00:48:55;2.83;;;1.80;;
69594;SDS011;56800;52.142;5.364;2023-07-20T00:51:22;2.80;;;1.80;;
69594;SDS011;56800;52.142;5.364;2023-07-20T00:53:51;2.65;;;1.70;;
69594;SDS011;56800;52.142;5.364;2023-07-20T00:56:18;2.97;;;1.90;;
69594;SDS011;56800;52.142;5.364;2023-07-20T00:58:46;2.63;;;1.70;;
69594;SDS011;56800;52.142;5.364;2023-07-20T01:01:13;3.60;;;1.92;;
69594;SDS011;56800;52.142;5.364;2023-07-20T01:03:40;3.00;;;1.57;;
69594;SDS011;56800;52.142;5.364;2023-07-20T01:06:14;2.75;;;1.60;;
69594;SDS011;56800;52.142;5.364;2023-07-20T01:09:07;2.47;;;1.42;;
69594;SDS011;56800;52.142;5.364;2023-07-20T01:11:50;3.10;;;1.70;;
69594;SDS011;56800;52.142;5.364;2023-07-20T01:14:26;2.50;;;1.55;;
69594;SDS011;56800;52.142;5.364;2023-07-20T01:16:53;2.63;;;1.70;;
69594;SDS011;56800;52.142;5.364;2023-07-20T01:19:20;2.88;;;1.88;;
69594;SDS011;56800;52.142;5.364;2023-07-20T01:27:25;2.85;;;1.75;;
69594;SDS011;56800;52.142;5.364;2023-07-20T01:30:25;2.30;;;1.43;;
69594;SDS011;56800;52.142;5.364;2023-07-20T01:33:04;3.03;;;1.50;;
69594;SDS011;56800;52.142;5.364;2023-07-20T01:35:32;2.45;;;1.58;;
69594;SDS011;56800;52.142;5.364;2023-07-20T01:38:00;3.88;;;1.52;;
69594;SDS011;56800;52.142;5.364;2023-07-20T01:40:28;3.38;;;1.63;;
69594;SDS011;56800;52.142;5.364;2023-07-20T01:42:55;3.03;;;2.13;;
69594;SDS011;56800;52.142;5.364;2023-07-20T01:45:22;2.58;;;1.67;;
69594;SDS011;56800;52.142;5.364;2023-07-20T01:47:49;1.98;;;1.30;;
69594;SDS011;56800;52.142;5.364;2023-07-20T01:50:16;2.45;;;1.98;;
69594;SDS011;56800;52.142;5.364;2023-07-20T01:52:42;4.10;;;1.73;;
69594;SDS011;56800;52.142;5.364;2023-07-20T01:55:09;3.60;;;1.90;;
69594;SDS011;56800;52.142;5.364;2023-07-20T01:57:36;1.95;;;1.48;;
69594;SDS011;56800;52.142;5.364;2023-07-20T02:00:04;3.50;;;1.80;;
69594;SDS011;56800;52.142;5.364;2023-07-20T02:02:31;3.50;;;1.90;;
69594;SDS011;56800;52.142;5.364;2023-07-20T02:04:57;2.83;;;1.80;;
69594;SDS011;56800;52.142;5.364;2023-07-20T02:07:24;2.13;;;1.60;;
69594;SDS011;56800;52.142;5.364;2023-07-20T02:09:51;4.60;;;1.65;;
69594;SDS011;56800;52.142;5.364;2023-07-20T02:12:18;3.42;;;1.80;;
69594;SDS011;56800;52.142;5.364;2023-07-20T02:14:44;2.67;;;1.58;;
69594;SDS011;56800;52.142;5.364;2023-07-20T02:17:11;2.70;;;1.80;;
69594;SDS011;56800;52.142;5.364;2023-07-20T02:19:38;4.30;;;1.60;;
69594;SDS011;56800;52.142;5.364;2023-07-20T02:22:06;3.55;;;1.63;;
69594;SDS011;56800;52.142;5.364;2023-07-20T02:24:33;2.25;;;1.58;;
69594;SDS011;56800;52.142;5.364;2023-07-20T02:27:00;2.78;;;1.80;;
69594;SDS011;56800;52.142;5.364;2023-07-20T02:29:27;2.55;;;2.00;;
69594;SDS011;56800;52.142;5.364;2023-07-20T02:31:54;2.43;;;1.67;;
69594;SDS011;56800;52.142;5.364;2023-07-20T02:34:20;4.30;;;1.90;;
69594;SDS011;56800;52.142;5.364;2023-07-20T02:36:47;3.95;;;2.00;;
69594;SDS011;56800;52.142;5.364;2023-07-20T02:39:14;3.05;;;1.67;;
69594;SDS011;56800;52.142;5.364;2023-07-20T02:41:41;2.85;;;1.52;;
69594;SDS011;56800;52.142;5.364;2023-07-20T02:44:08;2.27;;;1.60;;
69594;SDS011;56800;52.142;5.364;2023-07-20T02:46:34;2.65;;;1.70;;
69594;SDS011;56800;52.142;5.364;2023-07-20T02:49:01;2.63;;;1.65;;
69594;SDS011;56800;52.142;5.364;2023-07-20T02:51:28;3.38;;;1.70;;
69594;SDS011;56800;52.142;5.364;2023-07-20T02:53:55;2.72;;;1.77;;
69594;SDS011;56800;52.142;5.364;2023-07-20T02:56:22;3.20;;;1.60;;
69594;SDS011;56800;52.142;5.364;2023-07-20T02:58:49;2.10;;;1.60;;
69594;SDS011;56800;52.142;5.364;2023-07-20T03:01:18;3.53;;;1.85;;
69594;SDS011;56800;52.142;5.364;2023-07-20T03:03:45;3.33;;;1.90;;
69594;SDS011;56800;52.142;5.364;2023-07-20T03:06:13;4.43;;;1.67;;
69594;SDS011;56800;52.142;5.364;2023-07-20T03:08:41;3.17;;;1.80;;
69594;SDS011;56800;52.142;5.364;2023-07-20T03:11:11;4.30;;;2.08;;
69594;SDS011;56800;52.142;5.364;2023-07-20T03:13:38;5.20;;;2.28;;
69594;SDS011;56800;52.142;5.364;2023-07-20T03:16:04;3.90;;;2.13;;
69594;SDS011;56800;52.142;5.364;2023-07-20T03:18:31;4.05;;;1.95;;
69594;SDS011;56800;52.142;5.364;2023-07-20T03:20:58;5.43;;;2.40;;
69594;SDS011;56800;52.142;5.364;2023-07-20T03:23:24;3.60;;;2.22;;
69594;SDS011;56800;52.142;5.364;2023-07-20T03:25:52;3.58;;;2.28;;
69594;SDS011;56800;52.142;5.364;2023-07-20T03:28:21;4.38;;;2.40;;
69594;SDS011;56800;52.142;5.364;2023-07-20T03:30:57;7.25;;;2.47;;
69594;SDS011;56800;52.142;5.364;2023-07-20T03:33:28;4.00;;;2.23;;
69594;SDS011;56800;52.142;5.364;2023-07-20T03:35:55;3.60;;;2.60;;
69594;SDS011;56800;52.142;5.364;2023-07-20T03:38:23;5.47;;;3.00;;
69594;SDS011;56800;52.142;5.364;2023-07-20T03:40:51;6.28;;;2.67;;
69594;SDS011;56800;52.142;5.364;2023-07-20T03:43:19;5.13;;;2.67;;
69594;SDS011;56800;52.142;5.364;2023-07-20T03:45:46;3.73;;;2.60;;
69594;SDS011;56800;52.142;5.364;2023-07-20T03:48:15;5.47;;;2.80;;
69594;SDS011;56800;52.142;5.364;2023-07-20T03:50:46;5.88;;;2.67;;
69594;SDS011;56800;52.142;5.364;2023-07-20T03:53:14;3.90;;;2.47;;
69594;SDS011;56800;52.142;5.364;2023-07-20T03:55:45;6.30;;;3.05;;
69594;SDS011;56800;52.142;5.364;2023-07-20T03:58:13;4.77;;;3.10;;
69594;SDS011;56800;52.142;5.364;2023-07-20T04:00:44;5.45;;;2.63;;
69594;SDS011;56800;52.142;5.364;2023-07-20T04:03:17;6.72;;;2.97;;
69594;SDS011;56800;52.142;5.364;2023-07-20T04:05:44;8.18;;;3.17;;
69594;SDS011;56800;52.142;5.364;2023-07-20T04:08:11;5.53;;;3.20;;
69594;SDS011;56800;52.142;5.364;2023-07-20T04:10:38;6.37;;;3.10;;
69594;SDS011;56800;52.142;5.364;2023-07-20T04:13:05;5.00;;;2.80;;
69594;SDS011;56800;52.142;5.364;2023-07-20T04:15:33;5.57;;;3.05;;
69594;SDS011;56800;52.142;5.364;2023-07-20T04:18:00;5.75;;;3.17;;
69594;SDS011;56800;52.142;5.364;2023-07-20T04:20:27;7.55;;;3.35;;
69594;SDS011;56800;52.142;5.364;2023-07-20T04:22:54;3.93;;;2.97;;
69594;SDS011;56800;52.142;5.364;2023-07-20T04:25:20;5.50;;;3.13;;
69594;SDS011;56800;52.142;5.364;2023-07-20T04:27:47;4.85;;;2.88;;
69594;SDS011;56800;52.142;5.364;2023-07-20T04:30:16;3.95;;;2.63;;
69594;SDS011;56800;52.142;5.364;2023-07-20T04:32:45;5.07;;;3.30;;
69594;SDS011;56800;52.142;5.364;2023-07-20T04:35:17;4.80;;;3.47;;
69594;SDS011;56800;52.142;5.364;2023-07-20T04:38:04;6.78;;;3.28;;
69594;SDS011;56800;52.142;5.364;2023-07-20T04:40:31;6.63;;;3.58;;
69594;SDS011;56800;52.142;5.364;2023-07-20T04:42:58;5.15;;;3.30;;
69594;SDS011;56800;52.142;5.364;2023-07-20T04:45:24;6.93;;;3.40;;
69594;SDS011;56800;52.142;5.364;2023-07-20T04:47:51;5.13;;;3.30;;
69594;SDS011;56800;52.142;5.364;2023-07-20T04:50:18;4.97;;;3.50;;
69594;SDS011;56800;52.142;5.364;2023-07-20T04:52:45;5.45;;;3.30;;
69594;SDS011;56800;52.142;5.364;2023-07-20T04:55:12;5.80;;;3.47;;
69594;SDS011;56800;52.142;5.364;2023-07-20T04:57:39;7.18;;;3.83;;
69594;SDS011;56800;52.142;5.364;2023-07-20T05:00:06;8.53;;;3.53;;
69594;SDS011;56800;52.142;5.364;2023-07-20T05:02:33;6.05;;;3.53;;
69594;SDS011;56800;52.142;5.364;2023-07-20T05:05:00;8.25;;;3.72;;
69594;SDS011;56800;52.142;5.364;2023-07-20T05:07:27;5.35;;;3.40;;
69594;SDS011;56800;52.142;5.364;2023-07-20T05:09:54;6.80;;;3.45;;
69594;SDS011;56800;52.142;5.364;2023-07-20T05:12:20;6.60;;;3.40;;
69594;SDS011;56800;52.142;5.364;2023-07-20T05:14:47;5.50;;;3.92;;
69594;SDS011;56800;52.142;5.364;2023-07-20T05:17:14;7.65;;;3.20;;
69594;SDS011;56800;52.142;5.364;2023-07-20T05:19:40;7.75;;;3.85;;
69594;SDS011;56800;52.142;5.364;2023-07-20T05:22:10;5.80;;;3.53;;
69594;SDS011;56800;52.142;5.364;2023-07-20T05:24:39;6.00;;;3.33;;
69594;SDS011;56800;52.142;5.364;2023-07-20T05:27:06;4.55;;;2.88;;
69594;SDS011;56800;52.142;5.364;2023-07-20T05:29:33;9.20;;;2.90;;
69594;SDS011;56800;52.142;5.364;2023-07-20T05:31:59;5.07;;;3.28;;
69594;SDS011;56800;52.142;5.364;2023-07-20T05:34:26;5.78;;;2.70;;
69594;SDS011;56800;52.142;5.364;2023-07-20T05:36:53;6.83;;;2.90;;
69594;SDS011;56800;52.142;5.364;2023-07-20T05:39:20;7.55;;;3.20;;
69594;SDS011;56800;52.142;5.364;2023-07-20T05:41:46;7.05;;;2.88;;
69594;SDS011;56800;52.142;5.364;2023-07-20T05:44:13;4.72;;;3.13;;
69594;SDS011;56800;52.142;5.364;2023-07-20T05:46:40;6.25;;;2.70;;
69594;SDS011;56800;52.142;5.364;2023-07-20T05:49:22;6.70;;;3.23;;
69594;SDS011;56800;52.142;5.364;2023-07-20T05:51:49;5.40;;;3.10;;
69594;SDS011;56800;52.142;5.364;2023-07-20T05:54:16;4.60;;;3.20;;
69594;SDS011;56800;52.142;5.364;2023-07-20T05:56:42;3.90;;;2.33;;
69594;SDS011;56800;52.142;5.364;2023-07-20T05:59:09;6.43;;;3.20;;
69594;SDS011;56800;52.142;5.364;2023-07-20T06:01:36;4.80;;;2.80;;
69594;SDS011;56800;52.142;5.364;2023-07-20T06:04:03;7.22;;;2.75;;
69594;SDS011;56800;52.142;5.364;2023-07-20T06:06:30;4.70;;;2.67;;
69594;SDS011;56800;52.142;5.364;2023-07-20T06:08:56;7.55;;;3.08;;
69594;SDS011;56800;52.142;5.364;2023-07-20T06:11:23;5.45;;;2.53;;
69594;SDS011;56800;52.142;5.364;2023-07-20T06:13:50;4.50;;;2.60;;
69594;SDS011;56800;52.142;5.364;2023-07-20T06:16:17;3.42;;;2.42;;
69594;SDS011;56800;52.142;5.364;2023-07-20T06:18:43;3.63;;;2.40;;
69594;SDS011;56800;52.142;5.364;2023-07-20T06:21:11;3.30;;;2.13;;
69594;SDS011;56800;52.142;5.364;2023-07-20T06:23:38;5.13;;;2.20;;
69594;SDS011;56800;52.142;5.364;2023-07-20T06:26:06;3.23;;;2.30;;
69594;SDS011;56800;52.142;5.364;2023-07-20T06:28:33;5.38;;;2.17;;
69594;SDS011;56800;52.142;5.364;2023-07-20T06:31:00;5.10;;;2.33;;
69594;SDS011;56800;52.142;5.364;2023-07-20T06:33:28;3.88;;;2.53;;
69594;SDS011;56800;52.142;5.364;2023-07-20T06:35:55;4.85;;;2.35;;
69594;SDS011;56800;52.142;5.364;2023-07-20T06:38:31;5.30;;;2.00;;
69594;SDS011;56800;52.142;5.364;2023-07-20T06:40:58;3.80;;;2.17;;
69594;SDS011;56800;52.142;5.364;2023-07-20T06:43:45;5.03;;;2.10;;
69594;SDS011;56800;52.142;5.364;2023-07-20T06:46:14;3.70;;;1.90;;
69594;SDS011;56800;52.142;5.364;2023-07-20T06:48:41;2.60;;;1.70;;
69594;SDS011;56800;52.142;5.364;2023-07-20T06:51:10;3.07;;;1.70;;
69594;SDS011;56800;52.142;5.364;2023-07-20T06:53:37;2.60;;;1.27;;
69594;SDS011;56800;52.142;5.364;2023-07-20T06:56:05;6.32;;;1.65;;
69594;SDS011;56800;52.142;5.364;2023-07-20T06:58:31;5.85;;;1.40;;
69594;SDS011;56800;52.142;5.364;2023-07-20T07:00:59;3.38;;;1.35;;
69594;SDS011;56800;52.142;5.364;2023-07-20T07:03:30;3.53;;;1.57;;
69594;SDS011;56800;52.142;5.364;2023-07-20T07:05:57;4.63;;;1.38;;
69594;SDS011;56800;52.142;5.364;2023-07-20T07:08:23;5.57;;;1.50;;
69594;SDS011;56800;52.142;5.364;2023-07-20T07:10:50;3.40;;;1.50;;
69594;SDS011;56800;52.142;5.364;2023-07-20T07:13:19;4.95;;;1.75;;
69594;SDS011;56800;52.142;5.364;2023-07-20T07:15:46;5.47;;;1.60;;
69594;SDS011;56800;52.142;5.364;2023-07-20T07:18:12;4.03;;;1.20;;
69594;SDS011;56800;52.142;5.364;2023-07-20T07:20:39;4.82;;;1.50;;
69594;SDS011;56800;52.142;5.364;2023-07-20T07:23:06;2.67;;;1.55;;
69594;SDS011;56800;52.142;5.364;2023-07-20T07:25:32;6.05;;;1.45;;
69594;SDS011;56800;52.142;5.364;2023-07-20T07:28:00;3.17;;;1.33;;
69594;SDS011;56800;52.142;5.364;2023-07-20T07:30:26;3.40;;;1.60;;
69594;SDS011;56800;52.142;5.364;2023-07-20T07:32:53;6.93;;;1.42;;
69594;SDS011;56800;52.142;5.364;2023-07-20T07:35:20;3.30;;;1.65;;
69594;SDS011;56800;52.142;5.364;2023-07-20T07:37:46;4.18;;;1.60;;
69594;SDS011;56800;52.142;5.364;2023-07-20T07:40:29;2.90;;;1.47;;
69594;SDS011;56800;52.142;5.364;2023-07-20T07:42:56;3.85;;;1.35;;
69594;SDS011;56800;52.142;5.364;2023-07-20T07:45:22;4.38;;;1.23;;
69594;SDS011;56800;52.142;5.364;2023-07-20T07:47:49;3.03;;;1.35;;
69594;SDS011;56800;52.142;5.364;2023-07-20T07:50:16;5.88;;;1.40;;
69594;SDS011;56800;52.142;5.364;2023-07-20T07:52:42;2.67;;;1.23;;
69594;SDS011;56800;52.142;5.364;2023-07-20T07:55:09;3.92;;;1.35;;
69594;SDS011;56800;52.142;5.364;2023-07-20T07:57:36;3.30;;;1.15;;
69594;SDS011;56800;52.142;5.364;2023-07-20T08:00:03;4.10;;;1.35;;
69594;SDS011;56800;52.142;5.364;2023-07-20T08:02:30;3.88;;;1.55;;
69594;SDS011;56800;52.142;5.364;2023-07-20T08:04:58;2.20;;;1.10;;
69594;SDS011;56800;52.142;5.364;2023-07-20T08:07:24;2.25;;;1.23;;
69594;SDS011;56800;52.142;5.364;2023-07-20T08:09:51;2.95;;;1.42;;
69594;SDS011;56800;52.142;5.364;2023-07-20T08:12:18;1.98;;;1.05;;
69594;SDS011;56800;52.142;5.364;2023-07-20T08:14:46;2.78;;;1.30;;
69594;SDS011;56800;52.142;5.364;2023-07-20T08:17:13;2.30;;;1.20;;
69594;SDS011;56800;52.142;5.364;2023-07-20T08:19:40;3.33;;;1.58;;
69594;SDS011;56800;52.142;5.364;2023-07-20T08:22:08;3.88;;;1.38;;
69594;SDS011;56800;52.142;5.364;2023-07-20T08:24:35;1.70;;;1.10;;
69594;SDS011;56800;52.142;5.364;2023-07-20T08:27:05;1.90;;;1.20;;
69594;SDS011;56800;52.142;5.364;2023-07-20T08:29:32;1.80;;;1.23;;
69594;SDS011;56800;52.142;5.364;2023-07-20T08:31:59;3.15;;;1.30;;
69594;SDS011;56800;52.142;5.364;2023-07-20T08:34:26;3.83;;;1.58;;
69594;SDS011;56800;52.142;5.364;2023-07-20T08:36:58;2.20;;;1.27;;
69594;SDS011;56800;52.142;5.364;2023-07-20T08:39:25;1.70;;;0.90;;
69594;SDS011;56800;52.142;5.364;2023-07-20T08:41:51;1.90;;;1.33;;
69594;SDS011;56800;52.142;5.364;2023-07-20T08:44:18;2.72;;;1.23;;
69594;SDS011;56800;52.142;5.364;2023-07-20T08:46:45;1.98;;;1.42;;
69594;SDS011;56800;52.142;5.364;2023-07-20T08:49:14;2.08;;;1.10;;
69594;SDS011;56800;52.142;5.364;2023-07-20T08:51:43;1.80;;;1.00;;
69594;SDS011;56800;52.142;5.364;2023-07-20T08:54:12;2.30;;;1.13;;
69594;SDS011;56800;52.142;5.364;2023-07-20T08:56:40;1.73;;;1.23;;
69594;SDS011;56800;52.142;5.364;2023-07-20T08:59:08;3.60;;;1.27;;
69594;SDS011;56800;52.142;5.364;2023-07-20T09:01:36;2.83;;;1.33;;
69594;SDS011;56800;52.142;5.364;2023-07-20T09:04:05;2.13;;;1.00;;
69594;SDS011;56800;52.142;5.364;2023-07-20T09:06:32;2.47;;;1.30;;
69594;SDS011;56800;52.142;5.364;2023-07-20T09:09:01;2.03;;;0.90;;
69594;SDS011;56800;52.142;5.364;2023-07-20T09:11:28;2.50;;;1.40;;
69594;SDS011;56800;52.142;5.364;2023-07-20T09:14:02;1.60;;;1.13;;
69594;SDS011;56800;52.142;5.364;2023-07-20T09:16:30;1.77;;;0.93;;
69594;SDS011;56800;52.142;5.364;2023-07-20T09:19:00;1.70;;;1.20;;
69594;SDS011;56800;52.142;5.364;2023-07-20T09:21:28;2.50;;;1.15;;
69594;SDS011;56800;52.142;5.364;2023-07-20T09:23:56;1.77;;;1.10;;
69594;SDS011;56800;52.142;5.364;2023-07-20T09:26:23;2.05;;;1.33;;
69594;SDS011;56800;52.142;5.364;2023-07-20T09:28:53;1.95;;;1.10;;
69594;SDS011;56800;52.142;5.364;2023-07-20T09:31:22;1.90;;;1.10;;
69594;SDS011;56800;52.142;5.364;2023-07-20T09:33:49;1.67;;;0.88;;
69594;SDS011;56800;52.142;5.364;2023-07-20T09:36:21;1.58;;;1.05;;
69594;SDS011;56800;52.142;5.364;2023-07-20T09:39:08;1.80;;;1.05;;
69594;SDS011;56800;52.142;5.364;2023-07-20T09:41:41;2.60;;;1.17;;
69594;SDS011;56800;52.142;5.364;2023-07-20T09:44:11;2.90;;;1.10;;
69594;SDS011;56800;52.142;5.364;2023-07-20T09:46:44;1.63;;;1.13;;
69594;SDS011;56800;52.142;5.364;2023-07-20T09:49:17;2.25;;;1.25;;
69594;SDS011;56800;52.142;5.364;2023-07-20T09:51:47;3.17;;;1.63;;
69594;SDS011;56800;52.142;5.364;2023-07-20T09:54:14;3.60;;;1.10;;
69594;SDS011;56800;52.142;5.364;2023-07-20T09:56:42;3.13;;;1.70;;
69594;SDS011;56800;52.142;5.364;2023-07-20T09:59:10;1.52;;;0.98;;
69594;SDS011;56800;52.142;5.364;2023-07-20T10:01:37;2.35;;;1.60;;
69594;SDS011;56800;52.142;5.364;2023-07-20T10:04:09;2.85;;;1.58;;
69594;SDS011;56800;52.142;5.364;2023-07-20T10:06:39;2.75;;;1.30;;
69594;SDS011;56800;52.142;5.364;2023-07-20T10:09:10;2.37;;;1.10;;
69594;SDS011;56800;52.142;5.364;2023-07-20T10:11:43;2.35;;;1.15;;
69594;SDS011;56800;52.142;5.364;2023-07-20T10:14:19;2.40;;;1.17;;
69594;SDS011;56800;52.142;5.364;2023-07-20T10:16:49;5.65;;;1.33;;
69594;SDS011;56800;52.142;5.364;2023-07-20T10:22:02;2.27;;;1.53;;
69594;SDS011;56800;52.142;5.364;2023-07-20T10:24:35;1.98;;;1.45;;
69594;SDS011;56800;52.142;5.364;2023-07-20T10:27:03;3.10;;;1.38;;
69594;SDS011;56800;52.142;5.364;2023-07-20T10:29:31;3.30;;;1.42;;
69594;SDS011;56800;52.142;5.364;2023-07-20T10:31:58;1.83;;;1.48;;
69594;SDS011;56800;52.142;5.364;2023-07-20T10:34:26;1.70;;;1.23;;
69594;SDS011;56800;52.142;5.364;2023-07-20T10:36:54;3.47;;;1.42;;
69594;SDS011;56800;52.142;5.364;2023-07-20T10:39:24;2.42;;;1.20;;
69594;SDS011;56800;52.142;5.364;2023-07-20T10:44:33;1.90;;;1.13;;
69594;SDS011;56800;52.142;5.364;2023-07-20T10:47:03;2.47;;;1.50;;
69594;SDS011;56800;52.142;5.364;2023-07-20T10:49:35;3.72;;;1.63;;
69594;SDS011;56800;52.142;5.364;2023-07-20T10:52:21;1.88;;;1.45;;
69594;SDS011;56800;52.142;5.364;2023-07-20T10:54:48;1.80;;;1.45;;
69594;SDS011;56800;52.142;5.364;2023-07-20T10:57:29;1.77;;;1.50;;
69594;SDS011;56800;52.142;5.364;2023-07-20T11:00:10;3.80;;;1.60;;
69594;SDS011;56800;52.142;5.364;2023-07-20T11:02:41;1.83;;;1.40;;
69594;SDS011;56800;52.142;5.364;2023-07-20T11:05:33;1.92;;;1.40;;
69594;SDS011;56800;52.142;5.364;2023-07-20T11:08:11;2.90;;;1.58;;
69594;SDS011;56800;52.142;5.364;2023-07-20T11:10:38;1.70;;;1.50;;
69594;SDS011;56800;52.142;5.364;2023-07-20T11:13:16;2.03;;;1.20;;
69594;SDS011;56800;52.142;5.364;2023-07-20T11:15:52;2.95;;;1.63;;
69594;SDS011;56800;52.142;5.364;2023-07-20T11:18:30;1.92;;;1.33;;
69594;SDS011;56800;52.142;5.364;2023-07-20T11:21:00;1.80;;;1.58;;
69594;SDS011;56800;52.142;5.364;2023-07-20T11:23:27;1.80;;;1.45;;
69594;SDS011;56800;52.142;5.364;2023-07-20T11:25:55;1.60;;;1.10;;
69594;SDS011;56800;52.142;5.364;2023-07-20T11:28:22;2.55;;;1.30;;
69594;SDS011;56800;52.142;5.364;2023-07-20T11:30:54;2.03;;;1.67;;
69594;SDS011;56800;52.142;5.364;2023-07-20T11:33:21;1.92;;;1.58;;
69594;SDS011;56800;52.142;5.364;2023-07-20T11:35:48;1.90;;;1.40;;
69594;SDS011;56800;52.142;5.364;2023-07-20T11:38:17;2.00;;;1.53;;
69594;SDS011;56800;52.142;5.364;2023-07-20T11:40:44;3.45;;;1.50;;
69594;SDS011;56800;52.142;5.364;2023-07-20T11:43:12;1.80;;;1.52;;
69594;SDS011;56800;52.142;5.364;2023-07-20T11:45:42;3.67;;;1.90;;
69594;SDS011;56800;52.142;5.364;2023-07-20T11:48:14;2.28;;;1.60;;
69594;SDS011;56800;52.142;5.364;2023-07-20T11:50:42;1.73;;;1.33;;
69594;SDS011;56800;52.142;5.364;2023-07-20T11:53:08;2.63;;;1.80;;
69594;SDS011;56800;52.142;5.364;2023-07-20T11:55:36;2.60;;;1.80;;
69594;SDS011;56800;52.142;5.364;2023-07-20T11:58:03;4.45;;;2.08;;
69594;SDS011;56800;52.142;5.364;2023-07-20T12:00:34;3.65;;;1.80;;
69594;SDS011;56800;52.142;5.364;2023-07-20T12:03:05;2.50;;;1.10;;
69594;SDS011;56800;52.142;5.364;2023-07-20T12:05:40;2.10;;;1.63;;
69594;SDS011;56800;52.142;5.364;2023-07-20T12:08:10;2.35;;;1.70;;
69594;SDS011;56800;52.142;5.364;2023-07-20T12:10:39;5.35;;;1.75;;
69594;SDS011;56800;52.142;5.364;2023-07-20T12:13:10;2.42;;;1.50;;
69594;SDS011;56800;52.142;5.364;2023-07-20T12:15:40;3.22;;;1.90;;
69594;SDS011;56800;52.142;5.364;2023-07-20T12:18:08;1.98;;;1.60;;
69594;SDS011;56800;52.142;5.364;2023-07-20T12:20:35;2.75;;;1.60;;
69594;SDS011;56800;52.142;5.364;2023-07-20T12:23:03;2.10;;;1.55;;
69594;SDS011;56800;52.142;5.364;2023-07-20T12:25:38;2.45;;;1.65;;
69594;SDS011;56800;52.142;5.364;2023-07-20T12:28:07;2.17;;;1.67;;
69594;SDS011;56800;52.142;5.364;2023-07-20T12:30:36;2.30;;;1.88;;
69594;SDS011;56800;52.142;5.364;2023-07-20T12:33:06;2.08;;;1.70;;
69594;SDS011;56800;52.142;5.364;2023-07-20T12:35:33;2.13;;;1.17;;
69594;SDS011;56800;52.142;5.364;2023-07-20T12:38:01;5.15;;;1.67;;
69594;SDS011;56800;52.142;5.364;2023-07-20T12:40:28;2.70;;;1.80;;
69594;SDS011;56800;52.142;5.364;2023-07-20T12:42:55;2.83;;;1.70;;
69594;SDS011;56800;52.142;5.364;2023-07-20T12:45:21;3.10;;;2.38;;
69594;SDS011;56800;52.142;5.364;2023-07-20T12:47:48;2.10;;;1.40;;
69594;SDS011;56800;52.142;5.364;2023-07-20T12:50:15;2.20;;;1.50;;
69594;SDS011;56800;52.142;5.364;2023-07-20T12:52:42;6.45;;;1.88;;
69594;SDS011;56800;52.142;5.364;2023-07-20T12:55:09;2.13;;;1.70;;
69594;SDS011;56800;52.142;5.364;2023-07-20T12:57:36;2.88;;;1.70;;
69594;SDS011;56800;52.142;5.364;2023-07-20T13:00:04;4.53;;;1.27;;
69594;SDS011;56800;52.142;5.364;2023-07-20T13:02:35;2.85;;;1.90;;
69594;SDS011;56800;52.142;5.364;2023-07-20T13:05:02;2.45;;;1.45;;
69594;SDS011;56800;52.142;5.364;2023-07-20T13:07:30;3.03;;;1.75;;
69594;SDS011;56800;52.142;5.364;2023-07-20T13:10:01;4.82;;;2.05;;
69594;SDS011;56800;52.142;5.364;2023-07-20T13:12:30;2.92;;;1.58;;
69594;SDS011;56800;52.142;5.364;2023-07-20T13:14:58;2.67;;;1.70;;
69594;SDS011;56800;52.142;5.364;2023-07-20T13:17:27;2.27;;;1.27;;
69594;SDS011;56800;52.142;5.364;2023-07-20T13:19:54;3.28;;;1.75;;
69594;SDS011;56800;52.142;5.364;2023-07-20T13:22:21;3.33;;;1.90;;
69594;SDS011;56800;52.142;5.364;2023-07-20T13:24:49;2.97;;;1.80;;
69594;SDS011;56800;52.142;5.364;2023-07-20T13:27:17;2.88;;;1.40;;
69594;SDS011;56800;52.142;5.364;2023-07-20T13:29:45;3.33;;;1.70;;
69594;SDS011;56800;52.142;5.364;2023-07-20T13:32:14;2.95;;;1.42;;
69594;SDS011;56800;52.142;5.364;2023-07-20T13:34:41;3.15;;;1.60;;
69594;SDS011;56800;52.142;5.364;2023-07-20T13:37:10;2.75;;;1.45;;
69594;SDS011;56800;52.142;5.364;2023-07-20T13:39:39;3.05;;;1.48;;
69594;SDS011;56800;52.142;5.364;2023-07-20T13:42:06;2.88;;;1.88;;
69594;SDS011;56800;52.142;5.364;2023-07-20T13:44:33;2.65;;;1.50;;
69594;SDS011;56800;52.142;5.364;2023-07-20T13:47:00;5.65;;;1.85;;
69594;SDS011;56800;52.142;5.364;2023-07-20T13:49:30;4.05;;;1.40;;
69594;SDS011;56800;52.142;5.364;2023-07-20T13:52:02;3.80;;;1.40;;
69594;SDS011;56800;52.142;5.364;2023-07-20T13:54:32;2.72;;;1.42;;
69594;SDS011;56800;52.142;5.364;2023-07-20T13:56:58;3.88;;;1.70;;
69594;SDS011;56800;52.142;5.364;2023-07-20T13:59:25;2.92;;;1.65;;
69594;SDS011;56800;52.142;5.364;2023-07-20T14:01:52;3.95;;;1.60;;
69594;SDS011;56800;52.142;5.364;2023-07-20T14:04:38;2.25;;;1.50;;
69594;SDS011;56800;52.142;5.364;2023-07-20T14:07:06;3.38;;;1.80;;
69594;SDS011;56800;52.142;5.364;2023-07-20T14:09:33;3.25;;;1.67;;
69594;SDS011;56800;52.142;5.364;2023-07-20T14:12:00;2.65;;;1.80;;
69594;SDS011;56800;52.142;5.364;2023-07-20T14:14:29;2.75;;;1.45;;
69594;SDS011;56800;52.142;5.364;2023-07-20T14:16:56;4.13;;;1.40;;
69594;SDS011;56800;52.142;5.364;2023-07-20T14:19:23;3.03;;;1.63;;
69594;SDS011;56800;52.142;5.364;2023-07-20T14:21:50;2.70;;;1.50;;
69594;SDS011;56800;52.142;5.364;2023-07-20T14:24:16;4.57;;;1.85;;
69594;SDS011;56800;52.142;5.364;2023-07-20T14:26:45;2.42;;;1.75;;
69594;SDS011;56800;52.142;5.364;2023-07-20T14:29:17;2.38;;;1.58;;
69594;SDS011;56800;52.142;5.364;2023-07-20T14:31:45;4.28;;;1.73;;
69594;SDS011;56800;52.142;5.364;2023-07-20T14:34:15;3.70;;;1.95;;
69594;SDS011;56800;52.142;5.364;2023-07-20T14:36:42;3.53;;;2.22;;
69594;SDS011;56800;52.142;5.364;2023-07-20T14:39:09;2.88;;;2.13;;
69594;SDS011;56800;52.142;5.364;2023-07-20T14:41:36;2.65;;;1.35;;
69594;SDS011;56800;52.142;5.364;2023-07-20T14:44:03;2.85;;;1.60;;
69594;SDS011;56800;52.142;5.364;2023-07-20T14:46:31;3.13;;;2.17;;
69594;SDS011;56800;52.142;5.364;2023-07-20T14:48:58;2.72;;;1.60;;
69594;SDS011;56800;52.142;5.364;2023-07-20T14:51:25;6.03;;;1.95;;
69594;SDS011;56800;52.142;5.364;2023-07-20T14:54:03;9.07;;;1.50;;
69594;SDS011;56800;52.142;5.364;2023-07-20T14:56:29;2.58;;;1.85;;
69594;SDS011;56800;52.142;5.364;2023-07-20T15:13:02;2.47;;;1.25;;
69594;SDS011;56800;52.142;5.364;2023-07-20T15:15:30;3.33;;;2.13;;
69594;SDS011;56800;52.142;5.364;2023-07-20T15:17:57;2.15;;;1.55;;
69594;SDS011;56800;52.142;5.364;2023-07-20T15:20:24;3.65;;;1.38;;
69594;SDS011;56800;52.142;5.364;2023-07-20T15:22:52;2.03;;;1.50;;